createdAt,value
2018-08-07T00:00:50.594Z,56.74
2018-08-07T00:01:50.779Z,56.74
2018-08-07T00:02:50.954Z,56.74
2018-08-07T00:03:51.137Z,56.65
2018-08-07T00:04:51.319Z,56.74
2018-08-07T00:05:51.494Z,56.74
2018-08-07T00:06:51.666Z,56.84
2018-08-07T00:07:51.846Z,56.65
2018-08-07T00:08:52.182Z,56.65
2018-08-07T00:09:52.236Z,56.84
2018-08-07T00:10:52.414Z,56.84
2018-08-07T00:11:52.597Z,56.56
2018-08-07T00:12:52.768Z,56.26
2018-08-07T00:13:52.949Z,56.65
2018-08-07T00:14:53.128Z,56.56
2018-08-07T00:15:53.313Z,56.74
2018-08-07T00:16:53.489Z,56.74
2018-08-07T00:17:53.671Z,56.74
2018-08-07T00:18:53.847Z,56.74
2018-08-07T00:19:54.026Z,56.62
2018-08-07T00:20:54.210Z,56.56
2018-08-07T00:21:54.382Z,56.52
2018-08-07T00:22:54.566Z,57.01
2018-08-07T00:23:54.741Z,57.68
2018-08-07T00:24:54.924Z,57.39
2018-08-07T00:25:55.105Z,57.29
2018-08-07T00:26:55.288Z,57.07
2018-08-07T00:27:55.476Z,58.07
2018-08-07T00:28:55.648Z,58.07
2018-08-07T00:29:55.825Z,57.87
2018-08-07T00:30:56.009Z,57.97
2018-08-07T00:31:56.183Z,58.14
2018-08-07T00:32:56.365Z,58.65
2018-08-07T00:33:56.548Z,58.45
2018-08-07T00:34:56.721Z,58.52
2018-08-07T00:35:56.915Z,58.23
2018-08-07T00:36:57.096Z,58.52
2018-08-07T00:37:57.394Z,58.91
2018-08-07T00:38:57.458Z,58.52
2018-08-07T00:39:57.634Z,58.81
2018-08-07T00:40:57.812Z,58.23
2018-08-07T00:41:57.988Z,58.33
2018-08-07T00:42:58.163Z,58.23
2018-08-07T00:43:58.336Z,58.72
2018-08-07T00:44:58.513Z,58.04
2018-08-07T00:45:58.700Z,58.33
2018-08-07T00:46:58.875Z,58.23
2018-08-07T00:47:59.049Z,58.42
2018-08-07T00:48:59.228Z,58.42
2018-08-07T00:49:59.403Z,58.62
2018-08-07T00:50:59.578Z,58.52
2018-08-07T00:51:59.762Z,58.97
2018-08-07T00:52:59.937Z,58.88
2018-08-07T00:54:00.122Z,59.36
2018-08-07T00:55:00.297Z,59.36
2018-08-07T00:56:00.478Z,58.97
2018-08-07T00:57:00.653Z,59.65
2018-08-07T00:58:00.826Z,59.45
2018-08-07T00:59:01.004Z,59.20
2018-08-07T01:00:01.185Z,59.45
2018-08-07T01:01:01.363Z,59.55
2018-08-07T01:02:01.546Z,59.36
2018-08-07T01:03:01.730Z,59.94
2018-08-07T01:04:01.906Z,59.45
2018-08-07T01:05:02.087Z,59.75
2018-08-07T01:06:02.266Z,59.94
2018-08-07T01:07:02.451Z,59.65
2018-08-07T01:08:02.632Z,60.42
2018-08-07T01:09:02.807Z,59.65
2018-08-07T01:10:02.985Z,60.13
2018-08-07T01:11:03.164Z,60.61
2018-08-07T01:12:03.345Z,60.23
2018-08-07T01:13:03.516Z,60.52
2018-08-07T01:14:03.695Z,60.32
2018-08-07T01:15:03.878Z,61.10
2018-08-07T01:16:04.054Z,61.19
2018-08-07T01:17:04.237Z,61.35
2018-08-07T01:18:04.417Z,61.77
2018-08-07T01:19:04.597Z,61.74
2018-08-07T01:20:04.796Z,61.29
2018-08-07T01:21:04.980Z,61.55
2018-08-07T01:22:05.161Z,61.45
2018-08-07T01:23:05.330Z,61.25
2018-08-07T01:24:05.509Z,62.22
2018-08-07T01:25:05.692Z,62.41
2018-08-07T01:26:05.873Z,62.03
2018-08-07T01:27:06.121Z,62.22
2018-08-07T01:28:06.230Z,62.60
2018-08-07T01:29:06.411Z,62.32
2018-08-07T01:30:06.593Z,62.03
2018-08-07T01:31:06.768Z,62.41
2018-08-07T01:32:06.947Z,62.90
2018-08-07T01:33:07.123Z,62.80
2018-08-07T01:34:07.305Z,62.41
2018-08-07T01:35:07.487Z,62.41
2018-08-07T01:36:07.665Z,62.51
2018-08-07T01:37:07.831Z,62.70
2018-08-07T01:38:08.010Z,62.90
2018-08-07T01:39:08.191Z,63.09
2018-08-07T01:40:08.364Z,62.99
2018-08-07T01:41:08.541Z,62.60
2018-08-07T01:42:08.714Z,63.09
2018-08-07T01:43:08.890Z,63.18
2018-08-07T01:44:09.066Z,63.09
2018-08-07T01:45:09.240Z,62.57
2018-08-07T01:46:09.423Z,62.60
2018-08-07T01:47:09.602Z,62.87
2018-08-07T01:48:09.788Z,63.44
2018-08-07T01:49:09.962Z,63.73
2018-08-07T01:50:10.138Z,63.44
2018-08-07T01:51:10.309Z,63.34
2018-08-07T01:52:10.494Z,63.54
2018-08-07T01:53:10.667Z,63.34
2018-08-07T01:54:10.845Z,63.25
2018-08-07T01:55:11.022Z,63.73
2018-08-07T01:56:11.201Z,63.15
2018-08-07T01:57:11.373Z,63.34
2018-08-07T01:58:11.550Z,63.15
2018-08-07T01:59:11.723Z,62.77
2018-08-07T02:00:11.902Z,63.06
2018-08-07T02:01:12.081Z,63.25
2018-08-07T02:02:12.269Z,62.87
2018-08-07T02:03:12.444Z,63.41
2018-08-07T02:04:12.619Z,63.41
2018-08-07T02:05:12.801Z,63.60
2018-08-07T02:06:12.973Z,63.25
2018-08-07T02:07:13.150Z,63.34
2018-08-07T02:08:13.325Z,62.96
2018-08-07T02:09:13.499Z,62.67
2018-08-07T02:10:13.676Z,62.57
2018-08-07T02:11:13.849Z,62.48
2018-08-07T02:12:14.028Z,62.67
2018-08-07T02:13:14.204Z,62.64
2018-08-07T02:14:14.391Z,62.96
2018-08-07T02:15:14.552Z,62.45
2018-08-07T02:16:14.731Z,62.74
2018-08-07T02:17:14.916Z,62.93
2018-08-07T02:18:15.087Z,63.15
2018-08-07T02:19:15.267Z,62.64
2018-08-07T02:20:15.442Z,62.93
2018-08-07T02:21:15.625Z,63.06
2018-08-07T02:22:15.830Z,62.38
2018-08-07T02:23:16.009Z,62.93
2018-08-07T02:24:16.187Z,63.12
2018-08-07T02:25:16.362Z,63.70
2018-08-07T02:26:16.543Z,63.51
2018-08-07T02:27:16.719Z,63.64
2018-08-07T02:28:16.895Z,63.44
2018-08-07T02:29:17.068Z,63.25
2018-08-07T02:30:17.249Z,63.79
2018-08-07T02:31:17.434Z,63.31
2018-08-07T02:32:17.609Z,63.60
2018-08-07T02:33:17.787Z,63.79
2018-08-07T02:34:17.966Z,63.99
2018-08-07T02:35:18.141Z,63.82
2018-08-07T02:36:18.321Z,63.79
2018-08-07T02:37:18.493Z,63.82
2018-08-07T02:38:18.675Z,63.92
2018-08-07T02:39:18.846Z,63.82
2018-08-07T02:40:19.030Z,63.51
2018-08-07T02:41:19.212Z,64.08
2018-08-07T02:42:19.376Z,64.18
2018-08-07T02:43:19.555Z,64.28
2018-08-07T02:44:19.731Z,63.99
2018-08-07T02:45:19.921Z,64.66
2018-08-07T02:46:20.112Z,63.89
2018-08-07T02:47:20.272Z,63.60
2018-08-07T02:48:20.441Z,63.99
2018-08-07T02:49:20.621Z,64.18
2018-08-07T02:50:20.802Z,63.89
2018-08-07T02:51:20.972Z,64.37
2018-08-07T02:52:21.148Z,64.95
2018-08-07T02:53:21.322Z,64.47
2018-08-07T02:54:21.503Z,64.37
2018-08-07T02:55:21.683Z,65.05
2018-08-07T02:56:21.862Z,64.66
2018-08-07T02:57:22.046Z,65.81
2018-08-07T02:58:22.219Z,65.63
2018-08-07T02:59:22.390Z,65.53
2018-08-07T03:00:22.565Z,65.50
2018-08-07T03:01:22.741Z,66.10
2018-08-07T03:02:22.924Z,66.10
2018-08-07T03:03:23.099Z,66.01
2018-08-07T03:04:23.277Z,65.81
2018-08-07T03:05:23.450Z,65.91
2018-08-07T03:06:23.628Z,66.20
2018-08-07T03:07:23.808Z,66.20
2018-08-07T03:08:23.975Z,65.97
2018-08-07T03:09:24.154Z,66.30
2018-08-07T03:10:24.333Z,66.27
2018-08-07T03:11:24.509Z,66.58
2018-08-07T03:12:24.688Z,66.30
2018-08-07T03:13:24.866Z,66.36
2018-08-07T03:14:25.040Z,65.91
2018-08-07T03:15:25.215Z,65.91
2018-08-07T03:16:25.394Z,65.72
2018-08-07T03:17:25.581Z,65.91
2018-08-07T03:18:25.757Z,65.78
2018-08-07T03:19:25.926Z,65.63
2018-08-07T03:20:26.102Z,65.59
2018-08-07T03:21:26.283Z,65.63
2018-08-07T03:22:26.460Z,65.43
2018-08-07T03:23:26.646Z,66.01
2018-08-07T03:24:26.820Z,65.72
2018-08-07T03:25:26.997Z,65.43
2018-08-07T03:26:27.170Z,65.81
2018-08-07T03:27:27.353Z,66.01
2018-08-07T03:28:27.527Z,66.20
2018-08-07T03:29:27.702Z,65.72
2018-08-07T03:30:27.881Z,66.01
2018-08-07T03:31:28.062Z,65.72
2018-08-07T03:32:28.235Z,65.88
2018-08-07T03:33:28.412Z,65.69
2018-08-07T03:34:28.590Z,65.11
2018-08-07T03:35:28.767Z,65.50
2018-08-07T03:36:28.940Z,65.88
2018-08-07T03:37:29.117Z,65.78
2018-08-07T03:38:29.305Z,66.07
2018-08-07T03:39:29.474Z,65.69
2018-08-07T03:40:29.656Z,65.97
2018-08-07T03:41:29.831Z,66.36
2018-08-07T03:42:30.003Z,66.27
2018-08-07T03:43:30.176Z,66.46
2018-08-07T03:44:30.358Z,66.17
2018-08-07T03:45:30.536Z,66.17
2018-08-07T03:46:30.709Z,65.69
2018-08-07T03:47:30.884Z,66.36
2018-08-07T03:48:31.062Z,65.69
2018-08-07T03:49:31.238Z,66.27
2018-08-07T03:50:31.411Z,66.07
2018-08-07T03:51:31.588Z,66.27
2018-08-07T03:52:31.768Z,66.27
2018-08-07T03:53:31.940Z,65.97
2018-08-07T03:54:32.117Z,66.07
2018-08-07T03:55:32.297Z,66.55
2018-08-07T03:56:32.476Z,66.74
2018-08-07T03:57:32.653Z,67.22
2018-08-07T03:58:32.839Z,66.94
2018-08-07T03:59:33.012Z,67.58
2018-08-07T04:00:33.183Z,67.68
2018-08-07T04:01:33.385Z,68.25
2018-08-07T04:02:33.561Z,68.44
2018-08-07T04:03:33.733Z,68.44
2018-08-07T04:04:33.907Z,68.54
2018-08-07T04:05:34.083Z,68.63
2018-08-07T04:06:34.658Z,68.44
2018-08-07T04:07:34.407Z,68.83
2018-08-07T04:08:34.592Z,68.63
2018-08-07T04:09:34.773Z,68.54
2018-08-07T04:10:34.951Z,68.63
2018-08-07T04:11:35.153Z,68.73
2018-08-07T04:12:35.305Z,68.83
2018-08-07T04:13:35.489Z,68.83
2018-08-07T04:14:35.667Z,68.63
2018-08-07T04:15:35.844Z,68.54
2018-08-07T04:16:36.123Z,68.83
2018-08-07T04:17:36.193Z,68.92
2018-08-07T04:18:36.369Z,68.83
2018-08-07T04:19:36.576Z,68.83
2018-08-07T04:20:36.729Z,68.44
2018-08-07T04:21:36.908Z,68.63
2018-08-07T04:22:37.090Z,68.15
2018-08-07T04:23:37.260Z,67.96
2018-08-07T04:24:37.441Z,67.77
2018-08-07T04:25:37.608Z,67.77
2018-08-07T04:26:37.784Z,67.86
2018-08-07T04:27:37.963Z,68.25
2018-08-07T04:28:38.158Z,68.15
2018-08-07T04:29:38.339Z,68.29
2018-08-07T04:30:38.509Z,68.19
2018-08-07T04:31:38.684Z,67.80
2018-08-07T04:32:38.861Z,67.71
2018-08-07T04:33:39.046Z,67.51
2018-08-07T04:34:39.228Z,67.03
2018-08-07T04:35:39.402Z,67.19
2018-08-07T04:36:39.576Z,68.06
2018-08-07T04:37:39.752Z,68.25
2018-08-07T04:38:39.923Z,68.63
2018-08-07T04:39:40.098Z,68.83
2018-08-07T04:40:40.276Z,68.83
2018-08-07T04:41:40.449Z,69.02
2018-08-07T04:42:40.627Z,68.83
2018-08-07T04:43:40.804Z,68.57
2018-08-07T04:44:40.987Z,69.06
2018-08-07T04:45:41.228Z,69.06
2018-08-07T04:46:41.373Z,68.57
2018-08-07T04:47:41.565Z,68.86
2018-08-07T04:48:41.734Z,68.96
2018-08-07T04:49:41.921Z,68.76
2018-08-07T04:50:42.094Z,69.31
2018-08-07T04:51:42.281Z,68.83
2018-08-07T04:52:42.456Z,69.31
2018-08-07T04:53:42.633Z,69.40
2018-08-07T04:54:42.809Z,69.50
2018-08-07T04:55:42.986Z,69.24
2018-08-07T04:56:43.175Z,69.34
2018-08-07T04:57:43.346Z,69.50
2018-08-07T04:58:44.712Z,69.12
2018-08-07T04:59:43.648Z,69.21
2018-08-07T05:00:43.844Z,69.40
2018-08-07T05:01:44.030Z,69.40
2018-08-07T05:02:44.209Z,69.21
2018-08-07T05:03:44.735Z,69.12
2018-08-07T05:04:44.531Z,68.92
2018-08-07T05:05:44.716Z,68.57
2018-08-07T05:06:44.906Z,68.35
2018-08-07T05:07:45.086Z,68.29
2018-08-07T05:08:45.268Z,68.38
2018-08-07T05:09:45.443Z,67.80
2018-08-07T05:10:45.677Z,67.99
2018-08-07T05:11:45.791Z,67.99
2018-08-07T05:12:46.019Z,67.99
2018-08-07T05:13:46.162Z,67.80
2018-08-07T05:14:46.384Z,68.38
2018-08-07T05:15:46.554Z,68.57
2018-08-07T05:16:46.729Z,68.38
2018-08-07T05:17:46.906Z,68.09
2018-08-07T05:18:47.181Z,67.90
2018-08-07T05:19:47.232Z,67.80
2018-08-07T05:20:47.407Z,67.61
2018-08-07T05:21:47.597Z,67.13
2018-08-07T05:22:47.778Z,67.03
2018-08-07T05:23:47.952Z,67.51
2018-08-07T05:24:48.138Z,67.51
2018-08-07T05:25:48.316Z,67.45
2018-08-07T05:26:48.657Z,67.65
2018-08-07T05:27:48.638Z,66.88
2018-08-07T05:28:48.877Z,67.07
2018-08-07T05:29:49.348Z,66.78
2018-08-07T05:30:49.121Z,66.97
2018-08-07T05:31:49.302Z,66.78
2018-08-07T05:32:49.475Z,66.39
2018-08-07T05:33:49.657Z,66.20
2018-08-07T05:34:49.838Z,66.39
2018-08-07T05:35:50.060Z,66.42
2018-08-07T05:36:50.255Z,66.24
2018-08-07T05:37:50.440Z,66.42
2018-08-07T05:38:50.645Z,65.56
2018-08-07T05:39:50.846Z,65.85
2018-08-07T05:40:51.036Z,65.30
2018-08-07T05:41:51.220Z,65.20
2018-08-07T05:42:51.478Z,65.01
2018-08-07T05:43:51.606Z,64.82
2018-08-07T05:44:51.812Z,64.53
2018-08-07T05:45:52.217Z,65.11
2018-08-07T05:46:52.170Z,65.01
2018-08-07T05:47:52.353Z,64.92
2018-08-07T05:48:52.532Z,64.28
2018-08-07T05:49:52.715Z,63.89
2018-08-07T05:50:53.079Z,64.08
2018-08-07T05:51:53.094Z,63.79
2018-08-07T05:52:53.284Z,63.50
2018-08-07T05:53:53.475Z,63.24
2018-08-07T05:54:53.679Z,63.15
2018-08-07T05:55:53.848Z,63.24
2018-08-07T05:56:54.043Z,62.96
2018-08-07T05:57:54.282Z,62.76
2018-08-07T05:58:54.509Z,62.02
2018-08-07T05:59:54.614Z,61.35
2018-08-07T06:00:54.797Z,60.68
2018-08-07T06:01:54.971Z,60.58
2018-08-07T06:02:55.145Z,61.06
2018-08-07T06:03:55.318Z,61.06
2018-08-07T06:04:55.494Z,60.89
2018-08-07T06:05:55.679Z,61.06
2018-08-07T06:06:55.856Z,60.68
2018-08-07T06:07:56.032Z,60.68
2018-08-07T06:08:56.205Z,60.61
2018-08-07T06:09:56.384Z,59.83
2018-08-07T06:10:56.744Z,60.51
2018-08-07T06:11:56.717Z,60.03
2018-08-07T06:12:56.898Z,59.28
2018-08-07T06:13:57.077Z,59.16
2018-08-07T06:14:57.266Z,59.28
2018-08-07T06:15:57.431Z,58.87
2018-08-07T06:16:57.611Z,59.45
2018-08-07T06:17:57.793Z,59.09
2018-08-07T06:18:57.978Z,58.70
2018-08-07T06:19:58.160Z,58.45
2018-08-07T06:20:58.337Z,58.80
2018-08-07T06:21:58.510Z,58.61
2018-08-07T06:22:58.687Z,58.54
2018-08-07T06:23:58.882Z,58.73
2018-08-07T06:24:59.081Z,57.77
2018-08-07T06:25:59.286Z,57.03
2018-08-07T06:26:59.523Z,55.09
2018-08-07T06:27:59.649Z,54.51
2018-08-07T06:28:59.810Z,54.41
2018-08-07T06:30:00.083Z,53.55
2018-08-07T06:31:00.214Z,53.93
2018-08-07T06:32:00.406Z,53.86
2018-08-07T06:33:00.589Z,53.77
2018-08-07T06:34:00.791Z,54.53
2018-08-07T06:35:01.009Z,54.53
2018-08-07T06:36:01.209Z,54.47
2018-08-07T06:37:01.407Z,54.44
2018-08-07T06:38:01.593Z,53.79
2018-08-07T06:39:01.778Z,53.50
2018-08-07T06:40:01.981Z,53.53
2018-08-07T06:41:02.153Z,53.14
2018-08-07T06:42:02.333Z,52.85
2018-08-07T06:43:02.543Z,52.75
2018-08-07T06:44:02.724Z,53.14
2018-08-07T06:45:02.903Z,52.49
2018-08-07T06:46:03.092Z,52.00
2018-08-07T06:47:03.281Z,52.20
2018-08-07T06:48:03.476Z,52.87
2018-08-07T06:49:03.663Z,52.00
2018-08-07T06:50:07.182Z,51.84
2018-08-07T06:51:04.021Z,51.35
2018-08-07T06:52:04.228Z,51.93
2018-08-07T06:53:04.405Z,51.45
2018-08-07T06:54:04.594Z,51.54
2018-08-07T06:55:04.777Z,50.31
2018-08-07T06:56:04.964Z,50.21
2018-08-07T06:57:05.201Z,50.12
2018-08-07T06:58:05.333Z,49.85
2018-08-07T06:59:05.538Z,49.27
2018-08-07T07:00:05.741Z,49.10
2018-08-07T07:01:05.938Z,48.71
2018-08-07T07:02:06.128Z,48.54
2018-08-07T07:03:06.326Z,48.15
2018-08-07T07:04:06.501Z,47.66
2018-08-07T07:05:06.696Z,47.66
2018-08-07T07:06:06.878Z,47.30
2018-08-07T07:07:07.087Z,46.52
2018-08-07T07:08:07.318Z,46.52
2018-08-07T07:09:07.412Z,46.23
2018-08-07T07:10:07.610Z,46.62
2018-08-07T07:11:07.832Z,46.06
2018-08-07T07:12:08.024Z,46.18
2018-08-07T07:13:08.236Z,45.04
2018-08-07T07:14:08.411Z,44.16
2018-08-07T07:15:08.614Z,44.65
2018-08-07T07:16:08.827Z,44.67
2018-08-07T07:17:09.044Z,44.01
2018-08-07T07:18:09.229Z,43.23
2018-08-07T07:19:09.418Z,42.38
2018-08-07T07:20:09.613Z,41.30
2018-08-07T07:21:09.806Z,41.81
2018-08-07T07:22:09.985Z,41.35
2018-08-07T07:23:10.202Z,40.19
2018-08-07T07:24:10.366Z,38.96
2018-08-07T07:25:10.550Z,38.01
2018-08-07T07:26:10.730Z,37.52
2018-08-07T07:27:10.909Z,36.55
2018-08-07T07:28:11.136Z,36.08
2018-08-07T07:29:11.364Z,35.42
2018-08-07T07:30:11.540Z,34.86
2018-08-07T07:31:11.705Z,34.28
2018-08-07T07:32:12.268Z,33.61
2018-08-07T07:33:12.065Z,34.00
2018-08-07T07:34:12.285Z,34.39
2018-08-07T07:35:12.452Z,33.44
2018-08-07T07:36:12.625Z,32.57
2018-08-07T07:37:12.814Z,31.81
2018-08-07T07:38:13.013Z,31.22
2018-08-07T07:39:13.194Z,30.55
2018-08-07T07:40:13.473Z,30.27
2018-08-07T07:41:13.535Z,30.28
2018-08-07T07:42:13.706Z,29.90
2018-08-07T07:43:13.897Z,30.00
2018-08-07T07:44:14.080Z,30.00
2018-08-07T07:45:14.263Z,29.05
2018-08-07T07:46:14.463Z,28.64
2018-08-07T07:47:14.660Z,29.14
2018-08-07T07:48:14.861Z,28.75
2018-08-07T07:49:15.908Z,28.85
2018-08-07T07:50:15.190Z,28.45
2018-08-07T07:51:15.475Z,28.55
2018-08-07T07:52:15.555Z,27.37
2018-08-07T07:53:15.751Z,26.89
2018-08-07T07:54:15.953Z,26.61
2018-08-07T07:55:16.140Z,26.32
2018-08-07T07:56:16.526Z,26.23
2018-08-07T07:57:16.504Z,25.34
2018-08-07T07:58:16.687Z,25.26
2018-08-07T07:59:16.879Z,25.16
2018-08-07T08:00:17.080Z,25.37
2018-08-07T08:01:17.271Z,25.07
2018-08-07T08:02:17.460Z,25.07
2018-08-07T08:03:17.649Z,25.37
2018-08-07T08:04:17.836Z,25.77
2018-08-07T08:05:18.033Z,26.06
2018-08-07T08:06:18.208Z,25.77
2018-08-07T08:07:18.404Z,25.38
2018-08-07T08:08:18.596Z,25.18
2018-08-07T08:09:18.774Z,24.80
2018-08-07T08:10:18.965Z,24.32
2018-08-07T08:11:19.152Z,24.11
2018-08-07T08:12:19.339Z,24.32
2018-08-07T08:13:19.524Z,24.41
2018-08-07T08:14:19.710Z,24.71
2018-08-07T08:15:19.902Z,24.32
2018-08-07T08:16:20.090Z,23.94
2018-08-07T08:17:20.270Z,23.75
2018-08-07T08:18:20.462Z,22.97
2018-08-07T08:19:20.660Z,23.67
2018-08-07T08:20:20.844Z,23.86
2018-08-07T08:21:21.042Z,24.25
2018-08-07T08:22:21.235Z,24.05
2018-08-07T08:23:21.430Z,23.66
2018-08-07T08:24:21.653Z,23.95
2018-08-07T08:25:21.857Z,24.25
2018-08-07T08:26:22.064Z,24.25
2018-08-07T08:27:22.233Z,24.25
2018-08-07T08:28:22.420Z,23.67
2018-08-07T08:29:22.827Z,24.07
2018-08-07T08:30:22.806Z,23.96
2018-08-07T08:31:22.987Z,23.97
2018-08-07T08:32:23.182Z,23.68
2018-08-07T08:33:23.372Z,23.79
2018-08-07T08:34:23.557Z,23.38
2018-08-07T08:35:23.759Z,23.68
2018-08-07T08:36:23.932Z,23.29
2018-08-07T08:37:24.119Z,23.29
2018-08-07T08:38:24.326Z,23.69
2018-08-07T08:39:24.501Z,22.91
2018-08-07T08:40:24.687Z,22.89
2018-08-07T08:41:24.879Z,23.10
2018-08-07T08:42:25.078Z,22.91
2018-08-07T08:43:25.269Z,23.28
2018-08-07T08:44:25.465Z,23.11
2018-08-07T08:45:25.679Z,23.23
2018-08-07T08:46:25.871Z,22.33
2018-08-07T08:47:26.057Z,22.62
2018-08-07T08:48:26.263Z,22.34
2018-08-07T08:49:26.446Z,22.36
2018-08-07T08:50:26.635Z,22.16
2018-08-07T08:51:26.830Z,21.68
2018-08-07T08:52:27.023Z,21.59
2018-08-07T08:53:27.218Z,21.30
2018-08-07T08:54:27.400Z,20.81
2018-08-07T08:55:27.637Z,20.81
2018-08-07T08:56:27.781Z,20.81
2018-08-07T08:57:27.968Z,20.83
2018-08-07T08:58:28.160Z,20.43
2018-08-07T08:59:28.346Z,20.43
2018-08-07T09:00:28.547Z,19.93
2018-08-07T09:01:28.739Z,19.93
2018-08-07T09:02:28.930Z,20.34
2018-08-07T09:03:29.121Z,19.73
2018-08-07T09:04:29.319Z,19.53
2018-08-07T09:05:29.516Z,20.23
2018-08-07T09:06:29.702Z,20.70
2018-08-07T09:07:32.892Z,20.51
2018-08-07T09:08:31.354Z,20.22
2018-08-07T09:09:30.217Z,19.94
2018-08-07T09:10:30.503Z,19.63
2018-08-07T09:11:30.659Z,19.24
2018-08-07T09:12:30.910Z,18.56
2018-08-07T09:13:30.989Z,18.77
2018-08-07T09:14:31.173Z,18.78
2018-08-07T09:15:32.935Z,18.58
2018-08-07T09:16:31.529Z,17.88
2018-08-07T09:17:31.728Z,17.67
2018-08-07T09:18:31.910Z,17.56
2018-08-07T09:19:32.106Z,17.37
2018-08-07T09:20:32.290Z,18.26
2018-08-07T09:21:32.479Z,18.36
2018-08-07T09:22:32.673Z,17.78
2018-08-07T09:23:32.868Z,17.19
2018-08-07T09:24:33.071Z,17.40
2018-08-07T09:25:33.325Z,17.21
2018-08-07T09:26:33.445Z,17.99
2018-08-07T09:27:33.626Z,17.37
2018-08-07T09:28:33.829Z,17.67
2018-08-07T09:29:34.048Z,17.87
2018-08-07T09:30:34.255Z,17.47
2018-08-07T09:31:34.450Z,17.38
2018-08-07T09:32:34.713Z,17.77
2018-08-07T09:33:34.824Z,17.67
2018-08-07T09:34:35.000Z,17.09
2018-08-07T09:35:35.200Z,17.38
2018-08-07T09:36:35.375Z,17.16
2018-08-07T09:37:35.566Z,17.27
2018-08-07T09:38:36.375Z,17.16
2018-08-07T09:39:35.962Z,17.35
2018-08-07T09:40:36.138Z,18.04
2018-08-07T09:41:36.327Z,18.44
2018-08-07T09:42:36.519Z,18.04
2018-08-07T09:43:36.895Z,17.96
2018-08-07T09:44:36.918Z,17.76
2018-08-07T09:45:37.107Z,17.38
2018-08-07T09:46:37.352Z,16.19
2018-08-07T09:47:38.348Z,16.38
2018-08-07T09:48:37.646Z,16.00
2018-08-07T09:49:37.847Z,16.30
2018-08-07T09:50:38.034Z,16.39
2018-08-07T09:51:38.246Z,16.09
2018-08-07T09:52:38.446Z,16.00
2018-08-07T09:53:38.651Z,16.11
2018-08-07T09:54:38.854Z,16.12
2018-08-07T09:55:39.100Z,16.02
2018-08-07T09:56:39.169Z,16.69
2018-08-07T09:57:39.365Z,16.60
2018-08-07T09:58:39.662Z,15.91
2018-08-07T09:59:39.789Z,15.22
2018-08-07T10:00:39.989Z,15.22
2018-08-07T10:01:40.180Z,15.31
2018-08-07T10:02:40.370Z,15.39
2018-08-07T10:03:40.560Z,15.20
2018-08-07T10:04:40.752Z,14.92
2018-08-07T10:05:40.950Z,14.22
2018-08-07T10:06:41.139Z,13.63
2018-08-07T10:07:41.337Z,13.64
2018-08-07T10:08:41.525Z,13.85
2018-08-07T10:09:41.738Z,13.45
2018-08-07T10:10:41.931Z,13.56
2018-08-07T10:11:42.128Z,12.35
2018-08-07T10:12:42.327Z,12.87
2018-08-07T10:13:42.514Z,11.96
2018-08-07T10:14:42.709Z,11.26
2018-08-07T10:15:42.900Z,11.86
2018-08-07T10:16:43.095Z,12.47
2018-08-07T10:17:43.338Z,12.07
2018-08-07T10:18:43.486Z,13.15
2018-08-07T10:19:43.681Z,12.94
2018-08-07T10:20:43.872Z,13.24
2018-08-07T10:21:44.075Z,12.93
2018-08-07T10:22:44.290Z,13.02
2018-08-07T10:23:44.499Z,12.93
2018-08-07T10:24:44.686Z,12.84
2018-08-07T10:25:44.870Z,13.71
2018-08-07T10:26:45.072Z,14.00
2018-08-07T10:27:45.261Z,13.92
2018-08-07T10:28:45.452Z,13.83
2018-08-07T10:29:45.643Z,13.64
2018-08-07T10:30:45.831Z,13.43
2018-08-07T10:31:46.020Z,12.95
2018-08-07T10:32:46.204Z,12.95
2018-08-07T10:33:46.429Z,12.95
2018-08-07T10:34:46.626Z,12.45
2018-08-07T10:35:47.024Z,12.65
2018-08-07T10:36:47.018Z,12.15
2018-08-07T10:37:50.483Z,12.05
2018-08-07T10:38:51.821Z,12.15
2018-08-07T10:39:47.585Z,11.85
2018-08-07T10:40:47.917Z,11.24
2018-08-07T10:41:47.990Z,11.75
2018-08-07T10:42:48.186Z,12.26
2018-08-07T10:43:48.591Z,12.27
2018-08-07T10:44:48.650Z,11.35
2018-08-07T10:45:48.710Z,11.15
2018-08-07T10:46:48.956Z,11.16
2018-08-07T10:47:49.250Z,11.05
2018-08-07T10:48:49.349Z,11.16
2018-08-07T10:49:49.549Z,11.16
2018-08-07T10:50:49.767Z,11.36
2018-08-07T10:51:49.927Z,11.26
2018-08-07T10:52:50.399Z,11.36
2018-08-07T10:53:51.171Z,10.55
2018-08-07T10:54:50.713Z,11.16
2018-08-07T10:55:50.689Z,11.84
2018-08-07T10:56:50.875Z,11.91
2018-08-07T10:57:51.126Z,13.20
2018-08-07T10:58:51.184Z,12.52
2018-08-07T10:59:51.391Z,13.12
2018-08-07T11:00:51.590Z,12.52
2018-08-07T11:01:51.789Z,12.32
2018-08-07T11:02:51.993Z,12.02
2018-08-07T11:03:52.213Z,12.12
2018-08-07T11:04:52.387Z,12.13
2018-08-07T11:05:52.601Z,11.93
2018-08-07T11:06:52.832Z,12.41
2018-08-07T11:07:53.063Z,12.83
2018-08-07T11:08:53.135Z,12.13
2018-08-07T11:09:53.316Z,12.04
2018-08-07T11:10:53.509Z,12.35
2018-08-07T11:11:57.369Z,12.05
2018-08-07T11:12:53.914Z,11.35
2018-08-07T11:13:54.101Z,11.55
2018-08-07T11:14:54.297Z,11.46
2018-08-07T11:15:54.862Z,11.95
2018-08-07T11:16:54.805Z,12.26
2018-08-07T11:17:55.166Z,12.05
2018-08-07T11:18:55.260Z,12.24
2018-08-07T11:19:55.912Z,12.81
2018-08-07T11:20:55.561Z,13.48
2018-08-07T11:21:55.921Z,14.47
2018-08-07T11:22:56.151Z,15.05
2018-08-07T11:23:56.214Z,14.58
2018-08-07T11:24:56.452Z,14.09
2018-08-07T11:25:56.442Z,13.21
2018-08-07T11:26:56.671Z,13.23
2018-08-07T11:27:56.971Z,13.32
2018-08-07T11:28:56.995Z,13.70
2018-08-07T11:29:57.289Z,13.98
2018-08-07T11:30:57.656Z,13.98
2018-08-07T11:31:57.623Z,14.07
2018-08-07T11:32:58.476Z,13.99
2018-08-07T11:33:58.836Z,13.79
2018-08-07T11:34:58.980Z,13.70
2018-08-07T11:35:58.363Z,14.58
2018-08-07T11:36:58.491Z,14.96
2018-08-07T11:37:58.659Z,15.16
2018-08-07T11:38:58.838Z,15.23
2018-08-07T11:39:59.068Z,16.41
2018-08-07T11:40:59.228Z,17.00
2018-08-07T11:41:59.369Z,17.29
2018-08-07T11:42:59.445Z,17.77
2018-08-07T11:43:59.742Z,17.47
2018-08-07T11:44:59.972Z,17.86
2018-08-07T11:46:00.314Z,18.45
2018-08-07T11:47:00.482Z,18.75
2018-08-07T11:48:00.358Z,19.04
2018-08-07T11:49:04.356Z,18.73
2018-08-07T11:50:05.411Z,19.02
2018-08-07T11:51:02.572Z,18.84
2018-08-07T11:52:01.040Z,18.65
2018-08-07T11:53:01.226Z,18.54
2018-08-07T11:54:01.412Z,18.63
2018-08-07T11:55:01.598Z,18.43
2018-08-07T11:56:01.788Z,19.13
2018-08-07T11:57:01.984Z,19.02
2018-08-07T11:58:02.175Z,19.03
2018-08-07T11:59:02.368Z,19.12
2018-08-07T12:00:02.563Z,18.73
2018-08-07T12:01:02.775Z,18.54
2018-08-07T12:02:02.955Z,18.44
2018-08-07T12:03:03.155Z,18.54
2018-08-07T12:04:03.337Z,18.54
2018-08-07T12:05:03.528Z,18.55
2018-08-07T12:06:03.779Z,18.16
2018-08-07T12:07:03.924Z,18.15
2018-08-07T12:08:04.116Z,18.25
2018-08-07T12:09:04.308Z,18.73
2018-08-07T12:10:04.499Z,18.54
2018-08-07T12:11:04.692Z,18.82
2018-08-07T12:12:04.937Z,19.01
2018-08-07T12:13:05.342Z,19.51
2018-08-07T12:14:05.294Z,19.62
2018-08-07T12:15:10.321Z,20.11
2018-08-07T12:16:05.662Z,19.50
2018-08-07T12:17:05.849Z,19.68
2018-08-07T12:18:06.054Z,20.38
2018-08-07T12:19:06.259Z,20.68
2018-08-07T12:20:06.462Z,20.57
2018-08-07T12:21:06.682Z,20.38
2018-08-07T12:22:06.879Z,20.48
2018-08-07T12:23:07.100Z,20.08
2018-08-07T12:24:07.307Z,20.28
2018-08-07T12:25:07.517Z,20.28
2018-08-07T12:26:07.737Z,20.78
2018-08-07T12:27:07.936Z,20.57
2018-08-07T12:28:08.131Z,20.68
2018-08-07T12:29:08.329Z,20.47
2018-08-07T12:30:08.518Z,20.48
2018-08-07T12:31:08.741Z,20.48
2018-08-07T12:32:08.923Z,20.48
2018-08-07T12:33:09.096Z,20.57
2018-08-07T12:34:09.581Z,20.68
2018-08-07T12:35:10.369Z,20.57
2018-08-07T12:36:09.721Z,20.48
2018-08-07T12:37:09.907Z,20.57
2018-08-07T12:38:10.120Z,20.47
2018-08-07T12:39:10.324Z,20.07
2018-08-07T12:40:10.917Z,20.47
2018-08-07T12:41:10.745Z,20.47
2018-08-07T12:42:11.423Z,20.76
2018-08-07T12:43:11.109Z,20.67
2018-08-07T12:44:11.345Z,20.67
2018-08-07T12:45:13.155Z,20.68
2018-08-07T12:46:12.509Z,20.47
2018-08-07T12:47:12.417Z,20.47
2018-08-07T12:48:13.722Z,20.76
2018-08-07T12:49:12.933Z,20.86
2018-08-07T12:50:13.669Z,20.56
2018-08-07T12:51:13.578Z,20.46
2018-08-07T12:52:13.154Z,21.05
2018-08-07T12:53:14.273Z,21.16
2018-08-07T12:54:13.052Z,20.57
2018-08-07T12:55:14.274Z,21.06